Time;durP1;ratioP1;P1;durP2;ratioP2;P2;SDS_P1;SDS_P2;PMS_P1;PMS_P2;Temp;Humidity;BMP_temperature;BMP_pressure;BME280_temperature;BME280_humidity;BME280_pressure;Samples;Min_cycle;Max_cycle;Signal;HPM_P1;HPM_P2
2024/02/03 00:00:15;;;;;;;3.30;1.88;;;10.60;99.90;;;;;;4976797;28;20047;-74
2024/02/03 00:02:41;;;;;;;5.15;1.77;;;10.70;99.90;;;;;;4985658;28;20066;-73
2024/02/03 00:05:07;;;;;;;5.00;1.80;;;10.70;99.90;;;;;;4971056;28;20426;-74
2024/02/03 00:07:33;;;;;;;4.65;1.00;;;10.70;99.90;;;;;;4977506;28;20049;-74
2024/02/03 00:09:59;;;;;;;2.10;1.25;;;10.70;99.90;;;;;;4982844;28;20038;-74
2024/02/03 00:12:28;;;;;;;2.17;1.05;;;10.70;99.90;;;;;;4983221;28;20034;-73
2024/02/03 00:14:54;;;;;;;1.73;1.08;;;10.70;99.90;;;;;;4981661;28;20133;-73
2024/02/03 00:17:21;;;;;;;6.40;1.58;;;10.70;99.90;;;;;;4981425;28;20043;-74
2024/02/03 00:19:47;;;;;;;3.17;1.58;;;10.70;99.90;;;;;;4984646;28;20403;-73
2024/02/03 00:22:13;;;;;;;2.60;1.08;;;10.70;99.90;;;;;;4963460;28;20067;-73
2024/02/03 00:24:38;;;;;;;2.88;0.85;;;10.70;99.90;;;;;;4987937;28;20146;-73
2024/02/03 00:27:05;;;;;;;5.60;1.85;;;10.70;99.90;;;;;;4984779;28;20046;-75
2024/02/03 00:29:31;;;;;;;2.58;1.10;;;10.70;99.90;;;;;;4988058;28;20091;-75
2024/02/03 00:31:57;;;;;;;2.00;0.75;;;10.70;99.90;;;;;;4971000;28;20038;-75
2024/02/03 00:34:23;;;;;;;4.88;0.85;;;10.70;99.90;;;;;;4977543;28;20037;-75
2024/02/03 00:36:49;;;;;;;3.60;1.23;;;10.70;99.90;;;;;;4982498;28;20088;-75
2024/02/03 00:39:14;;;;;;;1.52;0.75;;;10.70;99.90;;;;;;4983226;28;20038;-75
2024/02/03 00:41:40;;;;;;;1.13;0.90;;;10.70;99.90;;;;;;4983990;28;20072;-75
2024/02/03 00:44:06;;;;;;;10.55;1.25;;;10.70;99.90;;;;;;4979071;28;20099;-75
2024/02/03 00:46:32;;;;;;;12.38;1.27;;;10.70;99.90;;;;;;4980421;28;20082;-75
2024/02/03 00:48:57;;;;;;;6.03;0.60;;;10.70;99.90;;;;;;4975042;28;20366;-75
2024/02/03 00:51:23;;;;;;;0.93;0.68;;;10.70;99.90;;;;;;4983172;28;20129;-75
2024/02/03 00:53:49;;;;;;;0.63;0.40;;;10.70;99.90;;;;;;4978497;28;20038;-75
2024/02/03 00:56:15;;;;;;;3.55;0.75;;;10.60;99.90;;;;;;4985593;28;20247;-76
2024/02/03 00:58:40;;;;;;;4.47;0.68;;;10.70;99.90;;;;;;4987458;28;20057;-76
2024/02/03 01:01:06;;;;;;;5.07;0.93;;;10.60;99.90;;;;;;4976353;28;20502;-77
2024/02/03 01:03:32;;;;;;;1.85;0.60;;;10.60;99.90;;;;;;4989121;28;20045;-76
2024/02/03 01:05:57;;;;;;;1.48;0.73;;;10.60;99.90;;;;;;4988610;28;20398;-75
2024/02/03 01:08:23;;;;;;;1.80;0.95;;;10.50;99.90;;;;;;4985143;28;20050;-76
2024/02/03 01:10:49;;;;;;;3.30;0.65;;;10.50;99.90;;;;;;4985497;28;20042;-75
2024/02/03 01:13:15;;;;;;;7.95;1.45;;;10.50;99.90;;;;;;4985697;28;20038;-75
2024/02/03 01:15:40;;;;;;;9.82;1.20;;;10.50;99.90;;;;;;4983682;28;20078;-76
2024/02/03 01:18:06;;;;;;;1.98;1.10;;;10.50;99.90;;;;;;4970830;28;20502;-75
2024/02/03 01:20:32;;;;;;;1.38;0.90;;;10.50;99.90;;;;;;4982926;28;20074;-75
2024/02/03 01:22:58;;;;;;;1.23;0.68;;;10.50;99.90;;;;;;4988532;28;20038;-76
2024/02/03 01:25:24;;;;;;;3.42;0.85;;;10.50;99.90;;;;;;4985061;28;20054;-76
2024/02/03 01:27:50;;;;;;;2.17;0.63;;;10.40;99.90;;;;;;4990125;28;20326;-76
2024/02/03 01:30:16;;;;;;;2.70;0.60;;;10.50;99.90;;;;;;4981707;28;20494;-74
2024/02/03 01:32:42;;;;;;;1.25;0.40;;;10.50;99.90;;;;;;4989618;28;20071;-75
2024/02/03 01:35:09;;;;;;;6.00;1.30;;;10.50;99.90;;;;;;4989848;28;20045;-76
2024/02/03 01:37:35;;;;;;;0.40;0.30;;;10.50;99.90;;;;;;4990502;28;20077;-76
2024/02/03 01:40:02;;;;;;;1.02;0.88;;;10.50;99.90;;;;;;4976247;28;20417;-75
2024/02/03 01:42:28;;;;;;;4.25;1.70;;;10.50;99.90;;;;;;4991858;28;20149;-75
2024/02/03 01:44:53;;;;;;;2.50;0.90;;;10.60;99.90;;;;;;4989519;28;20049;-75
2024/02/03 01:47:20;;;;;;;0.95;0.50;;;10.50;99.90;;;;;;4993975;28;20041;-76
2024/02/03 01:49:46;;;;;;;4.75;0.73;;;10.50;99.90;;;;;;4985338;28;20053;-76
2024/02/03 01:52:13;;;;;;;8.75;1.40;;;10.50;99.90;;;;;;4987444;28;20038;-74
2024/02/03 01:54:43;;;;;;;5.85;1.42;;;10.50;99.90;;;;;;4984901;28;20076;-74
2024/02/03 01:57:09;;;;;;;1.10;0.50;;;10.50;99.90;;;;;;4973585;28;20129;-75
2024/02/03 01:59:36;;;;;;;1.40;0.93;;;10.50;99.90;;;;;;4985212;28;20042;-76
2024/02/03 02:02:02;;;;;;;5.00;1.08;;;10.50;99.90;;;;;;4987228;28;20044;-75
2024/02/03 02:04:31;;;;;;;4.25;0.90;;;10.50;99.90;;;;;;4973609;28;20121;-74
2024/02/03 02:06:58;;;;;;;3.85;0.90;;;10.50;99.90;;;;;;4984639;28;20049;-75
2024/02/03 02:09:25;;;;;;;2.35;1.05;;;10.40;99.90;;;;;;4992383;28;20597;-75
2024/02/03 02:11:55;;;;;;;1.85;0.80;;;10.40;99.90;;;;;;4986740;28;20049;-74
2024/02/03 02:14:22;;;;;;;2.13;1.02;;;10.40;99.90;;;;;;4972416;28;20058;-74
2024/02/03 02:16:49;;;;;;;2.10;1.00;;;10.40;99.90;;;;;;4976275;28;20064;-75
2024/02/03 02:19:18;;;;;;;0.90;0.65;;;10.40;99.90;;;;;;4979591;28;20085;-75
2024/02/03 02:21:43;;;;;;;4.95;0.90;;;10.40;99.90;;;;;;4975358;28;20034;-74
2024/02/03 02:24:10;;;;;;;2.53;0.55;;;10.40;99.90;;;;;;4981390;28;20068;-74
2024/02/03 02:26:36;;;;;;;1.33;0.40;;;10.40;99.90;;;;;;4979098;28;20085;-74
2024/02/03 02:29:01;;;;;;;5.90;1.15;;;10.40;99.90;;;;;;4980915;28;20050;-75
2024/02/03 02:31:27;;;;;;;1.30;0.65;;;10.40;99.90;;;;;;4976174;28;20053;-74
2024/02/03 02:33:53;;;;;;;2.47;0.55;;;10.40;99.90;;;;;;4983078;28;20057;-74
2024/02/03 02:36:18;;;;;;;1.23;0.80;;;10.30;99.90;;;;;;4979797;28;20125;-75
2024/02/03 02:38:44;;;;;;;2.47;0.55;;;10.30;99.90;;;;;;4982117;28;20476;-75
2024/02/03 02:41:10;;;;;;;0.82;0.50;;;10.30;99.90;;;;;;4973187;28;20103;-75
2024/02/03 02:43:36;;;;;;;8.20;1.52;;;10.40;99.90;;;;;;4983776;28;20041;-75
2024/02/03 02:46:02;;;;;;;6.28;1.05;;;10.30;99.90;;;;;;4986639;28;20073;-74
2024/02/03 02:48:27;;;;;;;1.27;0.40;;;10.40;99.90;;;;;;4985761;28;20042;-74
2024/02/03 02:50:53;;;;;;;4.38;0.55;;;10.30;99.90;;;;;;4974117;28;20445;-73
2024/02/03 02:53:19;;;;;;;0.90;0.70;;;10.40;99.90;;;;;;4985010;28;20050;-74
2024/02/03 02:55:45;;;;;;;0.55;0.22;;;10.40;99.90;;;;;;4983211;28;20073;-74
2024/02/03 02:58:11;;;;;;;2.53;0.70;;;10.40;99.90;;;;;;4982936;28;20063;-74
2024/02/03 03:00:38;;;;;;;0.60;0.30;;;10.30;99.90;;;;;;4989847;28;20042;-74
2024/02/03 03:03:04;;;;;;;0.63;0.40;;;10.30;99.90;;;;;;4980371;28;20130;-74
2024/02/03 03:05:29;;;;;;;0.50;0.40;;;10.30;99.90;;;;;;4970918;28;20050;-74
2024/02/03 03:07:55;;;;;;;3.78;0.70;;;10.30;99.90;;;;;;4980446;28;20478;-74
2024/02/03 03:10:21;;;;;;;6.70;0.50;;;10.30;99.90;;;;;;4969913;28;20033;-74
2024/02/03 03:12:47;;;;;;;0.95;0.45;;;10.40;99.90;;;;;;4981779;28;20030;-75
2024/02/03 03:15:12;;;;;;;0.90;0.30;;;10.40;99.90;;;;;;4972669;28;20433;-74
2024/02/03 03:17:38;;;;;;;4.68;0.70;;;10.40;99.90;;;;;;4963562;28;20093;-74
2024/02/03 03:20:05;;;;;;;1.85;0.38;;;10.40;99.90;;;;;;4984431;28;20104;-74
2024/02/03 03:22:30;;;;;;;2.60;0.60;;;10.30;99.90;;;;;;4977104;28;20394;-74
2024/02/03 03:24:56;;;;;;;0.57;0.40;;;10.40;99.90;;;;;;4981069;28;20095;-74
2024/02/03 03:27:22;;;;;;;0.35;0.30;;;10.40;99.90;;;;;;4983086;28;20050;-73
2024/02/03 03:29:49;;;;;;;2.17;0.95;;;10.40;99.90;;;;;;4981416;28;20049;-74
2024/02/03 03:32:14;;;;;;;0.57;0.30;;;10.40;99.90;;;;;;4982421;28;20039;-74
2024/02/03 03:34:41;;;;;;;2.03;0.65;;;10.40;99.90;;;;;;4966640;28;20410;-74
2024/02/03 03:37:07;;;;;;;1.65;0.70;;;10.40;99.90;;;;;;4968108;28;20044;-74
2024/02/03 03:39:32;;;;;;;0.47;0.40;;;10.40;99.90;;;;;;4972139;28;20033;-74
2024/02/03 03:41:58;;;;;;;3.45;0.70;;;10.40;99.90;;;;;;4986684;28;20036;-74
2024/02/03 03:44:24;;;;;;;7.63;0.70;;;10.40;99.90;;;;;;4981462;28;20038;-73
2024/02/03 03:46:50;;;;;;;0.50;0.50;;;10.40;99.90;;;;;;4985863;28;20045;-74
2024/02/03 03:49:15;;;;;;;3.50;0.85;;;10.40;99.90;;;;;;4973564;28;20038;-74
2024/02/03 03:51:41;;;;;;;0.90;0.43;;;10.40;99.90;;;;;;4982973;28;20042;-75
2024/02/03 03:54:07;;;;;;;2.47;0.73;;;10.40;99.90;;;;;;4964399;28;20145;-74
2024/02/03 03:56:33;;;;;;;1.92;0.82;;;10.30;99.90;;;;;;4981925;28;20105;-74
2024/02/03 03:58:59;;;;;;;1.02;0.70;;;10.40;99.90;;;;;;4971364;28;20318;-74
2024/02/03 04:01:25;;;;;;;0.95;0.70;;;10.40;99.90;;;;;;4964403;28;20130;-74
2024/02/03 04:03:50;;;;;;;1.38;0.57;;;10.40;99.90;;;;;;4978157;28;20030;-75
2024/02/03 04:06:16;;;;;;;1.23;0.43;;;10.40;99.90;;;;;;4979023;28;20322;-74
2024/02/03 04:08:42;;;;;;;6.15;1.15;;;10.30;99.90;;;;;;4974982;28;20042;-75
2024/02/03 04:11:07;;;;;;;2.25;0.50;;;10.40;99.90;;;;;;4987048;28;20050;-75
2024/02/03 04:13:33;;;;;;;2.90;0.60;;;10.30;99.90;;;;;;4981331;28;20038;-75
2024/02/03 04:15:59;;;;;;;3.33;0.55;;;10.40;99.90;;;;;;4971164;28;20049;-75
2024/02/03 04:18:25;;;;;;;0.77;0.60;;;10.30;99.90;;;;;;4983809;28;20425;-74
2024/02/03 04:20:51;;;;;;;1.88;0.60;;;10.30;99.90;;;;;;4979440;28;20045;-74
2024/02/03 04:23:19;;;;;;;1.33;0.85;;;10.30;99.90;;;;;;4984085;28;20491;-75
2024/02/03 04:25:45;;;;;;;0.70;0.52;;;10.30;99.90;;;;;;4961972;28;20150;-74
2024/02/03 04:28:11;;;;;;;0.82;0.45;;;10.30;99.90;;;;;;4976038;28;20440;-75
2024/02/03 04:30:37;;;;;;;1.98;1.10;;;10.30;99.90;;;;;;4961099;28;20038;-74
2024/02/03 04:33:03;;;;;;;1.50;0.90;;;10.30;99.90;;;;;;4971134;28;20043;-75
2024/02/03 04:35:30;;;;;;;1.45;0.50;;;10.30;99.90;;;;;;4969729;28;20505;-75
2024/02/03 04:38:01;;;;;;;8.00;1.08;;;10.30;99.90;;;;;;4974354;28;20407;-75
2024/02/03 04:40:28;;;;;;;0.70;0.35;;;10.30;99.90;;;;;;4969507;28;20443;-74
2024/02/03 04:42:54;;;;;;;3.13;1.30;;;10.30;99.90;;;;;;4985510;28;20047;-74
2024/02/03 04:45:19;;;;;;;0.70;0.45;;;10.30;99.90;;;;;;4984586;28;20042;-75
2024/02/03 04:47:45;;;;;;;1.15;0.60;;;10.40;99.90;;;;;;4970553;28;20042;-75
2024/02/03 04:50:11;;;;;;;0.82;0.70;;;10.40;99.90;;;;;;4976577;28;20100;-75
2024/02/03 04:52:37;;;;;;;0.60;0.40;;;10.30;99.90;;;;;;4979711;28;20057;-74
2024/02/03 04:55:03;;;;;;;2.15;0.45;;;10.30;99.90;;;;;;4999187;28;20045;-73
2024/02/03 04:57:29;;;;;;;6.30;1.10;;;10.30;99.90;;;;;;4966699;28;20046;-74
2024/02/03 04:59:54;;;;;;;1.58;0.45;;;10.30;99.90;;;;;;4979018;28;20038;-74
2024/02/03 05:02:20;;;;;;;3.90;0.98;;;10.30;99.90;;;;;;4965179;28;20039;-74
2024/02/03 05:04:46;;;;;;;0.73;0.47;;;10.30;99.90;;;;;;4981281;28;20044;-74
2024/02/03 05:07:11;;;;;;;1.92;0.50;;;10.30;99.90;;;;;;4962007;28;20061;-74
2024/02/03 05:09:37;;;;;;;2.17;0.90;;;10.30;99.90;;;;;;4976464;28;20052;-74
2024/02/03 05:12:03;;;;;;;1.95;0.75;;;10.30;99.90;;;;;;4952245;28;20489;-74
2024/02/03 05:14:28;;;;;;;1.38;0.70;;;10.30;99.90;;;;;;4979170;28;20042;-74
2024/02/03 05:16:54;;;;;;;1.67;0.73;;;10.30;99.90;;;;;;4984925;28;20076;-74
2024/02/03 05:19:22;;;;;;;0.25;0.20;;;10.30;99.90;;;;;;4970896;28;20035;-74
2024/02/03 05:21:48;;;;;;;1.13;0.50;;;10.30;99.90;;;;;;4980171;28;20043;-74
2024/02/03 05:24:13;;;;;;;0.90;0.50;;;10.30;99.90;;;;;;4965570;28;20101;-74
2024/02/03 05:26:39;;;;;;;1.15;0.50;;;10.30;99.90;;;;;;4979363;28;20422;-74
2024/02/03 05:29:05;;;;;;;4.90;0.63;;;10.30;99.90;;;;;;4968595;28;20136;-75
2024/02/03 05:31:31;;;;;;;1.20;0.60;;;10.30;99.90;;;;;;4973242;28;20410;-74
2024/02/03 05:33:56;;;;;;;3.67;0.85;;;10.30;99.90;;;;;;4985955;28;20041;-74
2024/02/03 05:36:22;;;;;;;0.52;0.32;;;10.30;99.90;;;;;;4984288;28;20042;-74
2024/02/03 05:38:48;;;;;;;0.65;0.30;;;10.30;99.90;;;;;;4986693;28;20125;-74
2024/02/03 05:41:13;;;;;;;1.35;0.73;;;10.30;99.90;;;;;;4984941;28;20046;-74
2024/02/03 05:43:39;;;;;;;2.13;1.15;;;10.30;99.90;;;;;;4975769;28;20050;-74
2024/02/03 05:46:04;;;;;;;1.48;0.30;;;10.40;99.90;;;;;;4962754;28;20117;-74
2024/02/03 05:48:30;;;;;;;0.77;0.40;;;10.30;99.90;;;;;;4958626;28;20145;-74
2024/02/03 05:50:56;;;;;;;5.32;0.75;;;10.30;99.90;;;;;;4978917;28;20474;-74
2024/02/03 05:53:21;;;;;;;4.70;0.57;;;10.40;99.90;;;;;;4971081;28;20042;-74
2024/02/03 05:55:47;;;;;;;1.95;0.85;;;10.30;99.90;;;;;;4985633;28;20417;-74
2024/02/03 05:58:13;;;;;;;3.00;0.73;;;10.40;99.90;;;;;;4976707;28;20082;-75
2024/02/03 06:00:39;;;;;;;1.35;0.40;;;10.30;99.90;;;;;;4984615;28;20130;-74
2024/02/03 06:03:05;;;;;;;0.38;0.38;;;10.40;99.90;;;;;;4969871;28;20045;-75
2024/02/03 06:05:30;;;;;;;0.95;0.50;;;10.40;99.90;;;;;;4985227;28;20088;-74
2024/02/03 06:07:56;;;;;;;2.78;0.65;;;10.40;99.90;;;;;;4983701;28;20387;-75
2024/02/03 06:10:22;;;;;;;4.80;0.60;;;10.40;99.90;;;;;;4988580;28;20117;-75
2024/02/03 06:12:47;;;;;;;1.73;1.05;;;10.40;99.90;;;;;;4995937;28;20047;-75
2024/02/03 06:15:13;;;;;;;0.95;0.40;;;10.50;99.90;;;;;;4980272;28;20050;-75
2024/02/03 06:17:39;;;;;;;4.00;0.80;;;10.40;99.90;;;;;;4972665;28;20088;-75
2024/02/03 06:20:05;;;;;;;1.38;0.90;;;10.50;99.90;;;;;;4969909;28;20042;-75
2024/02/03 06:22:34;;;;;;;1.35;0.50;;;10.50;99.90;;;;;;4982841;28;20038;-75
2024/02/03 06:24:59;;;;;;;0.45;0.45;;;10.50;99.90;;;;;;4988987;28;20125;-74
2024/02/03 06:27:25;;;;;;;3.45;0.65;;;10.50;99.90;;;;;;4980152;28;20130;-74
2024/02/03 06:29:51;;;;;;;1.75;0.73;;;10.50;99.90;;;;;;4979657;28;20038;-74
2024/02/03 06:32:16;;;;;;;0.35;0.35;;;10.50;99.90;;;;;;4978859;28;20425;-75
2024/02/03 06:34:42;;;;;;;0.98;0.70;;;10.40;99.90;;;;;;4984291;28;20074;-75
2024/02/03 06:37:08;;;;;;;1.15;0.73;;;10.40;99.90;;;;;;4986918;28;20034;-75
2024/02/03 06:39:33;;;;;;;7.28;0.68;;;10.50;99.90;;;;;;4982546;28;20045;-74
2024/02/03 06:41:59;;;;;;;4.75;1.58;;;10.40;99.90;;;;;;4975043;28;20186;-75
2024/02/03 06:44:25;;;;;;;3.45;0.70;;;10.40;99.90;;;;;;4973921;28;20039;-76
2024/02/03 06:46:51;;;;;;;0.98;0.75;;;10.40;99.90;;;;;;4976642;28;20475;-75
2024/02/03 06:49:16;;;;;;;4.22;0.70;;;10.40;99.90;;;;;;4975440;28;20058;-75
2024/02/03 06:51:42;;;;;;;0.65;0.30;;;10.40;99.90;;;;;;4974878;28;20042;-74
2024/02/03 06:54:08;;;;;;;0.57;0.28;;;10.40;99.90;;;;;;4978878;28;20433;-75
2024/02/03 06:56:34;;;;;;;1.58;0.50;;;10.40;99.90;;;;;;4977763;28;20042;-75
2024/02/03 06:58:59;;;;;;;6.22;0.98;;;10.30;99.90;;;;;;4979539;28;20271;-75
2024/02/03 07:01:25;;;;;;;2.85;0.77;;;10.40;99.90;;;;;;4982384;28;20128;-75
2024/02/03 07:03:51;;;;;;;0.30;0.22;;;10.40;99.90;;;;;;4980193;28;20508;-75
2024/02/03 07:06:16;;;;;;;1.35;1.00;;;10.40;99.90;;;;;;4982873;28;20050;-75
2024/02/03 07:08:42;;;;;;;3.90;0.93;;;10.40;99.90;;;;;;4982679;28;20057;-74
2024/02/03 07:11:08;;;;;;;6.90;0.90;;;10.40;99.90;;;;;;4977058;28;20128;-75
2024/02/03 07:13:35;;;;;;;1.63;0.73;;;10.40;99.90;;;;;;4976152;28;20050;-75
2024/02/03 07:16:03;;;;;;;4.50;0.80;;;10.40;99.90;;;;;;4977528;28;20043;-72
2024/02/03 07:18:29;;;;;;;1.85;1.00;;;10.40;99.90;;;;;;4978353;28;20544;-73
2024/02/03 07:20:56;;;;;;;1.23;0.52;;;10.40;99.90;;;;;;4976488;28;20097;-74
2024/02/03 07:23:22;;;;;;;7.60;1.10;;;10.40;99.90;;;;;;4968647;28;20117;-73
2024/02/03 07:25:48;;;;;;;2.97;1.33;;;10.40;99.90;;;;;;4976861;28;20184;-74
2024/02/03 07:28:14;;;;;;;3.95;0.73;;;10.40;99.90;;;;;;4976774;28;20089;-73
2024/02/03 07:30:40;;;;;;;1.15;0.77;;;10.40;99.90;;;;;;4974544;28;20145;-73
2024/02/03 07:33:07;;;;;;;1.92;0.57;;;10.40;99.90;;;;;;4969144;28;20049;-73
2024/02/03 07:35:34;;;;;;;4.30;0.70;;;10.30;99.90;;;;;;4976114;28;20042;-74
2024/02/03 07:38:00;;;;;;;4.88;1.15;;;10.30;99.90;;;;;;4975287;28;20042;-73
2024/02/03 07:40:25;;;;;;;6.43;1.00;;;10.40;99.90;;;;;;4980509;28;20053;-73
2024/02/03 07:42:51;;;;;;;5.80;1.15;;;10.30;99.90;;;;;;4978420;28;20046;-74
2024/02/03 07:45:17;;;;;;;3.08;0.38;;;10.30;99.90;;;;;;4963544;28;20418;-73
2024/02/03 07:47:43;;;;;;;5.18;1.23;;;10.30;99.90;;;;;;4979940;28;20545;-73
2024/02/03 07:50:09;;;;;;;3.45;0.82;;;10.30;99.90;;;;;;4982323;28;20125;-73
2024/02/03 07:52:35;;;;;;;1.20;0.50;;;10.30;99.90;;;;;;4981455;28;20134;-73
2024/02/03 07:55:03;;;;;;;8.38;0.73;;;10.40;99.90;;;;;;4986630;28;20139;-73
2024/02/03 07:57:29;;;;;;;2.03;1.05;;;10.30;99.90;;;;;;4993701;28;20070;-73
2024/02/03 07:59:55;;;;;;;3.03;2.28;;;10.30;99.90;;;;;;4979643;28;20518;-73
2024/02/03 08:02:21;;;;;;;1.27;0.55;;;10.40;99.90;;;;;;4980652;28;20038;-73
2024/02/03 08:04:46;;;;;;;0.70;0.47;;;10.30;99.90;;;;;;4985629;28;20039;-73
2024/02/03 08:07:12;;;;;;;4.75;0.88;;;10.40;99.90;;;;;;4979497;28;20074;-72
2024/02/03 08:09:38;;;;;;;1.30;0.45;;;10.40;99.90;;;;;;4981805;28;20049;-72
2024/02/03 08:12:04;;;;;;;5.28;0.93;;;10.30;99.90;;;;;;4977798;28;20043;-75
2024/02/03 08:14:31;;;;;;;1.08;0.32;;;10.30;99.90;;;;;;4973192;28;20043;-74
2024/02/03 08:16:56;;;;;;;5.25;0.77;;;10.30;99.90;;;;;;4976898;28;20046;-73
2024/02/03 08:19:22;;;;;;;5.93;0.55;;;10.30;99.90;;;;;;4981060;28;20047;-73
2024/02/03 08:21:48;;;;;;;0.95;0.60;;;10.40;99.90;;;;;;4980785;28;20103;-74
2024/02/03 08:24:14;;;;;;;1.15;0.40;;;10.40;99.90;;;;;;4988093;28;20050;-73
2024/02/03 08:26:40;;;;;;;9.95;1.17;;;10.30;99.90;;;;;;4983784;28;20059;-74
2024/02/03 08:29:06;;;;;;;2.05;0.90;;;10.40;99.90;;;;;;4982670;28;20105;-74
2024/02/03 08:31:32;;;;;;;2.30;0.73;;;10.40;99.90;;;;;;4984858;28;20141;-73
2024/02/03 08:33:57;;;;;;;1.60;0.80;;;10.40;99.90;;;;;;4978996;28;20035;-73
2024/02/03 08:36:23;;;;;;;2.35;1.05;;;10.40;99.90;;;;;;4974470;28;20039;-73
2024/02/03 08:38:49;;;;;;;5.45;0.77;;;10.40;99.90;;;;;;4960634;28;20046;-73
2024/02/03 08:41:15;;;;;;;3.17;0.52;;;10.40;99.90;;;;;;5006524;28;20398;-73
2024/02/03 08:43:41;;;;;;;0.85;0.40;;;10.40;99.90;;;;;;4984196;28;20505;-74
2024/02/03 08:46:08;;;;;;;0.35;0.20;;;10.50;99.90;;;;;;4987243;28;20041;-73
2024/02/03 08:48:34;;;;;;;7.30;0.88;;;10.50;99.90;;;;;;5002607;28;20058;-73
2024/02/03 08:50:59;;;;;;;1.45;0.55;;;10.50;99.90;;;;;;4985257;28;20053;-73
2024/02/03 08:53:25;;;;;;;2.85;0.63;;;10.50;99.90;;;;;;4981402;28;20050;-73
2024/02/03 08:55:51;;;;;;;2.33;0.80;;;10.60;99.90;;;;;;4984184;28;20034;-72
2024/02/03 08:58:16;;;;;;;2.28;0.40;;;10.60;99.90;;;;;;4979608;28;20046;-73
2024/02/03 09:00:42;;;;;;;4.22;0.43;;;10.70;99.90;;;;;;4971113;28;20103;-74
2024/02/03 09:03:08;;;;;;;1.00;0.30;;;10.60;99.90;;;;;;4981102;28;20073;-74
2024/02/03 09:05:34;;;;;;;2.35;0.90;;;10.70;99.90;;;;;;4966754;28;20069;-74
2024/02/03 09:08:00;;;;;;;0.88;0.38;;;10.70;99.90;;;;;;4978900;28;20043;-73
2024/02/03 09:10:25;;;;;;;1.83;0.45;;;10.70;99.90;;;;;;4980128;28;20050;-74
2024/02/03 09:12:51;;;;;;;4.15;0.60;;;10.70;99.90;;;;;;4980302;28;20038;-75
2024/02/03 09:15:17;;;;;;;0.28;0.13;;;10.70;99.90;;;;;;4969703;28;20038;-74
2024/02/03 09:17:43;;;;;;;2.63;0.57;;;10.70;99.90;;;;;;4979408;28;20046;-74
2024/02/03 09:20:10;;;;;;;0.55;0.35;;;10.80;99.90;;;;;;4986182;28;20046;-73
2024/02/03 09:22:35;;;;;;;3.35;0.60;;;10.80;99.90;;;;;;4984841;28;20482;-73
2024/02/03 09:25:01;;;;;;;1.75;0.80;;;10.80;99.90;;;;;;4979797;28;20156;-73
2024/02/03 09:27:27;;;;;;;1.75;0.85;;;10.80;99.90;;;;;;4964247;28;20495;-73
2024/02/03 09:29:53;;;;;;;7.32;1.17;;;10.80;99.90;;;;;;4980913;28;20066;-74
2024/02/03 09:32:19;;;;;;;3.20;0.50;;;10.80;99.90;;;;;;4979506;28;20342;-74
2024/02/03 09:34:48;;;;;;;4.03;0.80;;;10.90;99.90;;;;;;4997674;28;20038;-74
2024/02/03 09:37:14;;;;;;;2.83;0.43;;;10.90;99.90;;;;;;4985503;28;20546;-74
2024/02/03 09:39:43;;;;;;;2.70;0.80;;;10.90;99.90;;;;;;4970165;28;20490;-73
2024/02/03 09:42:09;;;;;;;1.23;0.38;;;11.00;99.90;;;;;;4971136;28;20097;-74
2024/02/03 09:44:35;;;;;;;0.85;0.30;;;11.00;99.90;;;;;;4982568;28;20049;-73
2024/02/03 09:47:02;;;;;;;2.05;0.60;;;11.00;99.90;;;;;;4965565;28;20034;-74
2024/02/03 09:49:28;;;;;;;0.38;0.38;;;11.00;99.90;;;;;;4973433;28;20129;-74
2024/02/03 09:51:54;;;;;;;2.60;0.30;;;11.00;99.90;;;;;;4962536;28;20150;-74
2024/02/03 09:54:21;;;;;;;3.70;0.57;;;11.00;99.90;;;;;;4944657;28;20046;-74
2024/02/03 09:56:46;;;;;;;1.33;0.47;;;11.10;99.90;;;;;;4963905;28;20410;-74
2024/02/03 09:59:13;;;;;;;0.88;0.40;;;11.10;99.90;;;;;;4983738;28;20039;-74
2024/02/03 10:01:40;;;;;;;2.67;0.25;;;11.10;99.90;;;;;;4977944;28;20158;-74
2024/02/03 10:04:06;;;;;;;4.85;0.55;;;11.20;99.90;;;;;;4970354;28;20042;-74
2024/02/03 10:06:32;;;;;;;3.13;0.77;;;11.20;99.90;;;;;;4982354;28;20042;-74
2024/02/03 10:08:57;;;;;;;2.65;0.55;;;11.20;99.90;;;;;;4987097;28;20047;-74
2024/02/03 10:11:23;;;;;;;1.75;0.52;;;11.20;99.90;;;;;;4973474;28;20050;-73
2024/02/03 10:14:05;;;;;;;4.55;0.73;;;11.30;99.90;;;;;;4982118;28;20047;-74
2024/02/03 10:16:41;;;;;;;2.00;0.47;;;11.30;99.90;;;;;;4982383;28;20050;-74
2024/02/03 10:19:07;;;;;;;0.60;0.20;;;11.30;99.90;;;;;;4972560;28;20030;-74
2024/02/03 10:21:33;;;;;;;1.67;0.50;;;11.40;99.90;;;;;;4971756;28;20042;-74
2024/02/03 10:23:59;;;;;;;0.75;0.30;;;11.40;99.90;;;;;;4986090;28;20118;-74
2024/02/03 10:26:24;;;;;;;2.38;0.50;;;11.40;99.90;;;;;;4956922;28;20057;-74
2024/02/03 10:28:50;;;;;;;6.53;1.75;;;11.40;99.90;;;;;;4999169;28;20054;-74
2024/02/03 10:31:16;;;;;;;1.40;0.40;;;11.40;99.90;;;;;;4981495;28;20054;-74
2024/02/03 10:33:45;;;;;;;2.70;0.73;;;11.40;99.90;;;;;;4966557;28;20049;-75
2024/02/03 10:36:11;;;;;;;5.90;0.40;;;11.50;99.90;;;;;;4992667;28;20047;-75
2024/02/03 10:38:39;;;;;;;4.00;0.70;;;11.50;99.90;;;;;;4985081;28;20034;-75
2024/02/03 10:41:09;;;;;;;3.63;0.38;;;11.50;99.90;;;;;;4995836;28;20041;-74
2024/02/03 10:43:37;;;;;;;2.40;0.65;;;11.50;99.90;;;;;;4979135;28;20048;-75
2024/02/03 10:46:07;;;;;;;0.70;0.38;;;11.50;99.90;;;;;;4982925;28;20134;-74
2024/02/03 10:48:36;;;;;;;0.32;0.30;;;11.60;99.90;;;;;;4971663;28;20082;-75
2024/02/03 10:51:07;;;;;;;3.55;0.55;;;11.60;99.90;;;;;;4982519;28;20042;-74
2024/02/03 10:53:36;;;;;;;3.05;0.90;;;11.60;99.90;;;;;;4978264;28;20053;-75
2024/02/03 10:56:10;;;;;;;0.65;0.22;;;11.60;99.90;;;;;;4978707;28;20502;-74
2024/02/03 10:58:39;;;;;;;0.60;0.40;;;11.60;99.90;;;;;;4965233;28;20049;-74
2024/02/03 11:01:20;;;;;;;0.52;0.25;;;11.60;99.90;;;;;;4963662;28;20588;-75
2024/02/03 11:03:48;;;;;;;0.47;0.47;;;11.70;99.90;;;;;;4980988;28;20034;-75
2024/02/03 11:06:23;;;;;;;1.30;0.45;;;11.70;99.90;;;;;;4964771;28;20137;-75
2024/02/03 11:08:49;;;;;;;1.77;0.60;;;11.80;99.90;;;;;;4965731;28;20570;-75
2024/02/03 11:11:26;;;;;;;2.00;0.68;;;11.80;99.90;;;;;;4984560;28;20117;-76
2024/02/03 11:13:54;;;;;;;2.28;0.32;;;11.90;99.90;;;;;;4982616;28;20046;-75
2024/02/03 11:16:20;;;;;;;1.00;0.38;;;11.90;99.90;;;;;;4982746;28;20047;-76
2024/02/03 11:18:50;;;;;;;2.85;0.68;;;12.00;99.90;;;;;;4976445;28;20046;-76
2024/02/03 11:21:15;;;;;;;2.65;1.17;;;12.00;99.90;;;;;;4973451;28;20133;-76
2024/02/03 11:23:43;;;;;;;5.50;0.60;;;11.90;99.90;;;;;;4970678;28;20117;-76
2024/02/03 11:26:09;;;;;;;1.30;0.43;;;11.90;99.90;;;;;;4982705;28;20109;-76
2024/02/03 11:28:35;;;;;;;1.65;0.68;;;12.00;99.90;;;;;;4971516;28;20553;-75
2024/02/03 11:31:02;;;;;;;1.10;0.55;;;11.90;99.90;;;;;;4968061;28;20097;-75
2024/02/03 11:33:29;;;;;;;3.65;0.73;;;11.90;99.90;;;;;;4978066;28;20505;-75
2024/02/03 11:36:02;;;;;;;0.30;0.25;;;11.90;99.90;;;;;;4981902;28;20104;-75
2024/02/03 11:38:28;;;;;;;0.55;0.40;;;11.90;99.90;;;;;;4981517;28;20073;-75
2024/02/03 11:40:56;;;;;;;0.75;0.22;;;11.80;99.90;;;;;;4982497;28;20069;-78
2024/02/03 11:43:23;;;;;;;0.57;0.20;;;11.90;99.90;;;;;;4978432;28;20078;-75
2024/02/03 11:45:57;;;;;;;9.05;0.60;;;11.90;99.90;;;;;;4977877;28;20105;-76
2024/02/03 11:48:23;;;;;;;0.40;0.30;;;11.90;99.90;;;;;;4967045;28;20460;-75
2024/02/03 11:50:49;;;;;;;2.05;0.63;;;12.00;99.90;;;;;;4966794;28;20041;-76
2024/02/03 11:53:26;;;;;;;4.32;1.15;;;12.10;99.90;;;;;;4966119;28;20397;-76
2024/02/03 11:55:53;;;;;;;2.42;0.50;;;12.10;99.90;;;;;;4983562;28;20092;-76
2024/02/03 11:58:23;;;;;;;1.35;0.40;;;12.10;99.90;;;;;;4983252;28;20438;-76
2024/02/03 12:01:06;;;;;;;2.22;0.20;;;12.10;99.90;;;;;;4982431;28;20072;-77
2024/02/03 12:03:33;;;;;;;0.98;0.52;;;12.10;99.90;;;;;;4972645;28;20046;-76
2024/02/03 12:05:59;;;;;;;2.42;0.70;;;12.10;99.90;;;;;;4950151;28;20126;-76
2024/02/03 12:08:25;;;;;;;5.57;0.75;;;12.10;99.90;;;;;;4984319;28;20062;-76
2024/02/03 12:10:50;;;;;;;4.90;0.60;;;12.10;99.90;;;;;;4971787;28;20045;-76
2024/02/03 12:13:16;;;;;;;1.90;0.60;;;12.10;99.90;;;;;;4981571;28;20074;-82
2024/02/03 12:15:43;;;;;;;2.30;0.57;;;12.10;99.90;;;;;;4970573;28;20041;-82
2024/02/03 12:18:09;;;;;;;1.02;0.52;;;12.20;99.90;;;;;;4972047;28;20092;-81
2024/02/03 12:20:35;;;;;;;2.40;0.63;;;12.20;99.90;;;;;;4963607;28;20034;-81
2024/02/03 12:23:01;;;;;;;4.53;0.68;;;12.10;99.90;;;;;;4989063;28;20038;-81
2024/02/03 12:25:27;;;;;;;0.85;0.55;;;12.10;99.90;;;;;;4983694;28;20041;-82
2024/02/03 12:27:53;;;;;;;3.35;0.82;;;12.10;99.90;;;;;;4969984;28;20387;-81
2024/02/03 12:30:21;;;;;;;14.38;8.65;;;12.10;99.90;;;;;;4978012;28;20034;-82
2024/02/03 12:32:47;;;;;;;3.47;1.08;;;12.10;99.90;;;;;;4970121;28;20482;-81
2024/02/03 12:35:14;;;;;;;0.30;0.20;;;12.10;99.90;;;;;;4981130;28;20048;-82
2024/02/03 12:37:40;;;;;;;6.18;0.47;;;12.10;99.90;;;;;;4979701;28;20506;-82
2024/02/03 12:40:09;;;;;;;0.85;0.57;;;12.20;99.90;;;;;;4966618;28;20395;-81